Terminal Aerodrome Forecast
Issued by NWS

Home | Current Version | Previous Version | Text Only | Print | Product List | Glossary On
Versions: 1 2 3 4 5 6 7 8 9 10 11 12 13 14 15 16 17
000
FTUS46 KPDT 142335
TAFPSC
TAF
KPSC 142335Z 1500/1524 10004KT P6SM BKN015 OVC027
      TEMPO 1500/1502 SCT015 OVC027
     FM150400 VRB03KT P6SM FEW009 OVC014
     FM151200 16004KT 6SM BR BKN008 OVC012
     FM152000 19004KT 6SM -RA BR SCT008 OVC023=

USA.gov is the U.S. government's official web portal to all federal, state and local government web resources and services.